Offenbach, Germany

12:38 PM CEST on March 31, 2015 (GMT +0200)
Wiesbaden Army Air Field | | Change Station
CLOSE
Current Station
Airport
Location: Wiesbaden,
Elevation: 459 ft
Nearby Weather Stations

Elev 459 ft 50.05 °N, 8.33 °E | Updated 7 minutes ago

Light Rain
Light Rain
54 °F
Feels Like 54 °F
N
31
Wind Variable Wind from WSW
Gusts 40 mph

Today
High -- | Low -- °F
--% Chance of Precip.
Yesterday
High -- | Low -- °F
Precip. -- in
7:04 AM 7:54 PM
Waxing Gibbous, 86% visible
Pressure 29.53 in
Visibility 6.2 miles
Clouds Scattered Clouds 4100 ft
Mostly Cloudy 4900 ft
Mostly Cloudy 6000 ft
Dew Point 43 °F
Humidity 67%
Rainfall 0.25 in
Snow Depth Not available.
UV 3 out of 12
Pollen Not available.
Air Quality Not available.
Flu Activity Not available.
SPECI ETOU 311031Z AUTO 25027G35KT 9999 -RA SCT041 BKN049 BKN060 12/06 A2953 RMK AO2 RAB08E29RAB31 CIG 044 RWY07

More Conditions Fewer Conditions

Pressure 29.53 in
Visibility 6.2 miles
Clouds Scattered Clouds 4100 ft
Mostly Cloudy 4900 ft
Mostly Cloudy 6000 ft
Dew Point 43 °F
Humidity 67%
Rainfall 0.25 in
Snow Depth Not available.
UV 3 out of 12
Pollen Not available.
Air Quality Not available.
Flu Activity Not available.
SPECI ETOU 311031Z AUTO 25027G35KT 9999 -RA SCT041 BKN049 BKN060 12/06 A2953 RMK AO2 RAB08E29RAB31 CIG 044 RWY07

More Conditions Fewer Conditions

10-Day Weather Forecast

Almanac

Astronomy

Mar. 31, 2015 Rise Set
Actual Time
Civil Twilight
Nautical Twilight
Astronomical Twilight
Moon
Length of Visible Light
Length of Day
Tomorrow will be .
, % of the Moon is Illuminated

Today's Extremes

Country Highs Country Lows

Community

WunderPhotos

Upload Photos

1,809,737 photos uploaded!

WunderBlogs® & News

Nearby

Air Quality

  Air Quality AQ Index Pollutant
Not available.

Snow Depth

Station Depth Elevation

Earthquake Activity

City Distance Mag. Time & Date
Minimum magnitude displayed is 2.5.

Coastal Water Temperatures

Place Temperature

Stations

Nearby Weather Stations

Station Location Temp. Windchill Dew Point Humidity Wind Precip. Elev Updated Type